sensor_id;sensor_type;location;lat;lon;timestamp;pressure;altitude;pressure_sealevel;temperature;humidity
13015;BME280;6573;57.696;11.950;2023-06-14T00:00:03;102057.28;;;21.09;100.00
13015;BME280;6573;57.696;11.950;2023-06-14T00:02:34;102060.34;;;20.92;100.00
13015;BME280;6573;57.696;11.950;2023-06-14T00:05:03;102050.28;;;21.02;100.00
13015;BME280;6573;57.696;11.950;2023-06-14T00:07:36;102067.75;;;21.18;100.00
13015;BME280;6573;57.696;11.950;2023-06-14T00:10:06;102060.63;;;21.17;100.00
13015;BME280;6573;57.696;11.950;2023-06-14T00:12:36;102067.06;;;21.10;100.00
13015;BME280;6573;57.696;11.950;2023-06-14T00:15:06;102073.81;;;20.89;100.00
13015;BME280;6573;57.696;11.950;2023-06-14T00:17:36;102072.72;;;20.62;100.00
13015;BME280;6573;57.696;11.950;2023-06-14T00:20:06;102064.84;;;20.56;100.00
13015;BME280;6573;57.696;11.950;2023-06-14T00:22:36;102065.44;;;20.67;100.00
13015;BME280;6573;57.696;11.950;2023-06-14T00:25:06;102066.97;;;20.78;100.00
13015;BME280;6573;57.696;11.950;2023-06-14T00:27:56;102059.06;;;20.73;100.00
13015;BME280;6573;57.696;11.950;2023-06-14T00:30:25;102065.38;;;20.71;100.00
13015;BME280;6573;57.696;11.950;2023-06-14T00:32:57;102069.59;;;20.81;100.00
13015;BME280;6573;57.696;11.950;2023-06-14T00:35:26;102070.34;;;20.86;100.00
13015;BME280;6573;57.696;11.950;2023-06-14T00:37:55;102072.50;;;21.07;100.00
13015;BME280;6573;57.696;11.950;2023-06-14T00:40:23;102065.28;;;21.10;100.00
13015;BME280;6573;57.696;11.950;2023-06-14T00:42:52;102065.50;;;21.00;100.00
13015;BME280;6573;57.696;11.950;2023-06-14T00:45:22;102068.81;;;20.76;100.00
13015;BME280;6573;57.696;11.950;2023-06-14T00:47:50;102057.88;;;20.49;100.00
13015;BME280;6573;57.696;11.950;2023-06-14T00:50:23;102057.59;;;20.61;100.00
13015;BME280;6573;57.696;11.950;2023-06-14T00:52:51;102060.34;;;20.58;100.00
13015;BME280;6573;57.696;11.950;2023-06-14T00:55:20;102060.47;;;20.52;100.00
13015;BME280;6573;57.696;11.950;2023-06-14T00:57:48;102067.88;;;20.41;100.00
13015;BME280;6573;57.696;11.950;2023-06-14T01:00:18;102065.56;;;20.26;100.00
13015;BME280;6573;57.696;11.950;2023-06-14T01:02:48;102056.03;;;20.13;100.00
13015;BME280;6573;57.696;11.950;2023-06-14T01:05:18;102062.25;;;20.14;100.00
13015;BME280;6573;57.696;11.950;2023-06-14T01:08:01;102063.03;;;20.17;100.00
13015;BME280;6573;57.696;11.950;2023-06-14T01:10:39;102063.03;;;20.17;100.00
13015;BME280;6573;57.696;11.950;2023-06-14T01:13:13;102061.44;;;20.10;100.00
13015;BME280;6573;57.696;11.950;2023-06-14T01:15:45;102066.72;;;20.13;100.00
13015;BME280;6573;57.696;11.950;2023-06-14T01:18:16;102059.88;;;20.00;100.00
13015;BME280;6573;57.696;11.950;2023-06-14T01:20:47;102063.59;;;19.93;100.00
13015;BME280;6573;57.696;11.950;2023-06-14T01:23:19;102060.81;;;19.99;100.00
13015;BME280;6573;57.696;11.950;2023-06-14T01:25:49;102065.38;;;19.94;100.00
13015;BME280;6573;57.696;11.950;2023-06-14T01:28:21;102062.19;;;19.77;100.00
13015;BME280;6573;57.696;11.950;2023-06-14T01:30:52;102065.81;;;19.73;100.00
13015;BME280;6573;57.696;11.950;2023-06-14T01:33:23;102065.81;;;19.73;100.00
13015;BME280;6573;57.696;11.950;2023-06-14T01:35:53;102065.81;;;19.73;100.00
13015;BME280;6573;57.696;11.950;2023-06-14T01:38:24;102069.25;;;19.78;100.00
13015;BME280;6573;57.696;11.950;2023-06-14T01:40:55;102065.75;;;19.76;100.00
13015;BME280;6573;57.696;11.950;2023-06-14T01:43:25;102077.16;;;19.82;100.00
13015;BME280;6573;57.696;11.950;2023-06-14T01:45:56;102079.34;;;20.05;100.00
13015;BME280;6573;57.696;11.950;2023-06-14T01:48:26;102079.41;;;20.02;100.00
13015;BME280;6573;57.696;11.950;2023-06-14T01:50:55;102085.91;;;19.90;100.00
13015;BME280;6573;57.696;11.950;2023-06-14T01:53:24;102081.81;;;19.73;100.00
13015;BME280;6573;57.696;11.950;2023-06-14T01:55:53;102079.28;;;19.67;100.00
13015;BME280;6573;57.696;11.950;2023-06-14T01:58:21;102078.47;;;19.63;100.00
13015;BME280;6573;57.696;11.950;2023-06-14T02:00:51;102075.28;;;19.45;100.00
13015;BME280;6573;57.696;11.950;2023-06-14T02:03:22;102074.41;;;19.44;100.00
13015;BME280;6573;57.696;11.950;2023-06-14T02:05:52;102080.50;;;19.51;100.00
13015;BME280;6573;57.696;11.950;2023-06-14T02:08:21;102072.63;;;19.45;100.00
13015;BME280;6573;57.696;11.950;2023-06-14T02:10:51;102086.53;;;19.60;100.00
13015;BME280;6573;57.696;11.950;2023-06-14T02:13:20;102083.78;;;19.65;100.00
13015;BME280;6573;57.696;11.950;2023-06-14T02:15:48;102082.06;;;19.61;100.00
13015;BME280;6573;57.696;11.950;2023-06-14T02:18:22;102087.91;;;19.36;100.00
13015;BME280;6573;57.696;11.950;2023-06-14T02:20:51;102093.38;;;19.27;100.00
13015;BME280;6573;57.696;11.950;2023-06-14T02:23:19;102083.47;;;19.34;100.00
13015;BME280;6573;57.696;11.950;2023-06-14T02:25:48;102086.50;;;19.14;100.00
13015;BME280;6573;57.696;11.950;2023-06-14T02:28:18;102081.31;;;19.05;100.00
13015;BME280;6573;57.696;11.950;2023-06-14T02:30:47;102088.47;;;19.03;100.00
13015;BME280;6573;57.696;11.950;2023-06-14T02:33:15;102087.53;;;19.06;100.00
13015;BME280;6573;57.696;11.950;2023-06-14T02:35:44;102093.78;;;19.03;100.00
13015;BME280;6573;57.696;11.950;2023-06-14T02:38:13;102081.31;;;19.05;100.00
13015;BME280;6573;57.696;11.950;2023-06-14T02:40:41;102087.50;;;19.07;100.00
13015;BME280;6573;57.696;11.950;2023-06-14T02:43:09;102087.34;;;19.16;100.00
13015;BME280;6573;57.696;11.950;2023-06-14T02:45:39;102084.44;;;19.28;100.00
13015;BME280;6573;57.696;11.950;2023-06-14T02:48:08;102089.84;;;19.25;100.00
13015;BME280;6573;57.696;11.950;2023-06-14T02:50:37;102098.72;;;19.27;100.00
13015;BME280;6573;57.696;11.950;2023-06-14T02:53:05;102095.06;;;19.31;100.00
13015;BME280;6573;57.696;11.950;2023-06-14T02:55:34;102085.41;;;19.24;100.00
13015;BME280;6573;57.696;11.950;2023-06-14T02:58:07;102093.38;;;19.27;100.00
13015;BME280;6573;57.696;11.950;2023-06-14T03:00:35;102092.44;;;19.30;100.00
13015;BME280;6573;57.696;11.950;2023-06-14T03:03:06;102090.66;;;19.29;100.00
13015;BME280;6573;57.696;11.950;2023-06-14T03:05:43;102088.09;;;19.24;100.00
13015;BME280;6573;57.696;11.950;2023-06-14T03:08:13;102087.47;;;19.09;100.00
13015;BME280;6573;57.696;11.950;2023-06-14T03:10:44;102083.81;;;19.14;100.00
13015;BME280;6573;57.696;11.950;2023-06-14T03:13:13;102091.44;;;19.35;100.00
13015;BME280;6573;57.696;11.950;2023-06-14T03:15:42;102089.13;;;19.17;100.00
13015;BME280;6573;57.696;11.950;2023-06-14T03:18:13;102085.16;;;18.89;100.00
13015;BME280;6573;57.696;11.950;2023-06-14T03:20:41;102091.34;;;18.91;100.00
13015;BME280;6573;57.696;11.950;2023-06-14T03:23:12;102104.66;;;18.91;100.00
13015;BME280;6573;57.696;11.950;2023-06-14T03:25:40;102102.72;;;19.02;100.00
13015;BME280;6573;57.696;11.950;2023-06-14T03:28:09;102101.00;;;18.98;100.00
13015;BME280;6573;57.696;11.950;2023-06-14T03:30:37;102095.91;;;18.83;100.00
13015;BME280;6573;57.696;11.950;2023-06-14T03:33:05;102097.72;;;18.81;100.00
13015;BME280;6573;57.696;11.950;2023-06-14T03:35:35;102104.63;;;18.94;100.00
13015;BME280;6573;57.696;11.950;2023-06-14T03:38:04;102108.16;;;18.96;100.00
13015;BME280;6573;57.696;11.950;2023-06-14T03:40:32;102099.22;;;19.00;100.00
13015;BME280;6573;57.696;11.950;2023-06-14T03:43:00;102107.97;;;19.05;100.00
13015;BME280;6573;57.696;11.950;2023-06-14T03:45:28;102108.06;;;19.02;100.00
13015;BME280;6573;57.696;11.950;2023-06-14T03:47:57;102102.13;;;18.85;100.00
13015;BME280;6573;57.696;11.950;2023-06-14T03:50:27;102109.13;;;18.91;100.00
13015;BME280;6573;57.696;11.950;2023-06-14T03:52:57;102106.56;;;18.83;100.00
13015;BME280;6573;57.696;11.950;2023-06-14T03:55:28;102118.84;;;18.93;100.00
13015;BME280;6573;57.696;11.950;2023-06-14T03:58:00;102117.06;;;18.95;100.00
13015;BME280;6573;57.696;11.950;2023-06-14T04:00:29;102112.59;;;18.97;100.00
13015;BME280;6573;57.696;11.950;2023-06-14T04:02:58;102120.53;;;19.00;100.00
13015;BME280;6573;57.696;11.950;2023-06-14T04:05:27;102117.13;;;18.92;100.00
13015;BME280;6573;57.696;11.950;2023-06-14T04:07:57;102124.91;;;19.04;100.00
13015;BME280;6573;57.696;11.950;2023-06-14T04:10:27;102124.78;;;19.12;100.00
13015;BME280;6573;57.696;11.950;2023-06-14T04:12:56;102118.56;;;19.11;100.00
13015;BME280;6573;57.696;11.950;2023-06-14T04:15:24;102124.66;;;19.18;100.00
13015;BME280;6573;57.696;11.950;2023-06-14T04:17:55;102118.75;;;18.99;100.00
13015;BME280;6573;57.696;11.950;2023-06-14T04:20:24;102120.59;;;18.97;100.00
13015;BME280;6573;57.696;11.950;2023-06-14T04:22:53;102115.25;;;18.97;100.00
13015;BME280;6573;57.696;11.950;2023-06-14T04:25:25;102120.22;;;19.18;100.00
13015;BME280;6573;57.696;11.950;2023-06-14T04:27:57;102131.41;;;19.40;100.00
13015;BME280;6573;57.696;11.950;2023-06-14T04:30:26;102125.41;;;19.27;100.00
13015;BME280;6573;57.696;11.950;2023-06-14T04:32:58;102130.75;;;19.27;100.00
13015;BME280;6573;57.696;11.950;2023-06-14T04:35:26;102126.16;;;19.34;100.00
13015;BME280;6573;57.696;11.950;2023-06-14T04:37:56;102132.28;;;19.41;100.00
13015;BME280;6573;57.696;11.950;2023-06-14T04:40:25;102135.06;;;19.34;100.00
13015;BME280;6573;57.696;11.950;2023-06-14T04:42:53;102123.66;;;19.23;100.00
13015;BME280;6573;57.696;11.950;2023-06-14T04:45:22;102136.13;;;19.24;100.00
13015;BME280;6573;57.696;11.950;2023-06-14T04:47:50;102137.72;;;19.34;100.00
13015;BME280;6573;57.696;11.950;2023-06-14T04:50:24;102138.28;;;19.55;100.00
13015;BME280;6573;57.696;11.950;2023-06-14T04:52:53;102128.59;;;19.48;100.00
13015;BME280;6573;57.696;11.950;2023-06-14T04:55:21;102135.69;;;19.49;100.00
13015;BME280;6573;57.696;11.950;2023-06-14T04:57:51;102130.13;;;19.61;100.00
13015;BME280;6573;57.696;11.950;2023-06-14T05:00:21;102130.19;;;19.58;100.00
13015;BME280;6573;57.696;11.950;2023-06-14T05:02:50;102132.81;;;19.61;100.00
13015;BME280;6573;57.696;11.950;2023-06-14T05:05:20;102133.59;;;19.66;100.00
13015;BME280;6573;57.696;11.950;2023-06-14T05:07:48;102130.97;;;19.64;100.00
13015;BME280;6573;57.696;11.950;2023-06-14T05:10:17;102128.00;;;19.78;100.00
13015;BME280;6573;57.696;11.950;2023-06-14T05:12:45;102132.31;;;19.85;100.00
13015;BME280;6573;57.696;11.950;2023-06-14T05:15:16;102131.31;;;19.92;100.00
13015;BME280;6573;57.696;11.950;2023-06-14T05:17:45;102129.63;;;19.85;100.00
13015;BME280;6573;57.696;11.950;2023-06-14T05:20:14;102133.81;;;19.99;100.00
13015;BME280;6573;57.696;11.950;2023-06-14T05:22:43;102139.91;;;20.06;100.00
13015;BME280;6573;57.696;11.950;2023-06-14T05:25:11;102130.84;;;20.13;100.00
13015;BME280;6573;57.696;11.950;2023-06-14T05:27:40;102125.50;;;20.13;100.00
13015;BME280;6573;57.696;11.950;2023-06-14T05:30:09;102130.72;;;20.19;100.00
13015;BME280;6573;57.696;11.950;2023-06-14T05:32:39;102130.50;;;20.31;100.00
13015;BME280;6573;57.696;11.950;2023-06-14T05:35:08;102128.31;;;20.48;100.00
13015;BME280;6573;57.696;11.950;2023-06-14T05:37:37;102131.53;;;20.62;100.00
13015;BME280;6573;57.696;11.950;2023-06-14T05:40:06;102134.50;;;20.50;100.00
13015;BME280;6573;57.696;11.950;2023-06-14T05:42:35;102133.22;;;20.66;100.00
13015;BME280;6573;57.696;11.950;2023-06-14T05:45:04;102128.03;;;20.60;100.00
13015;BME280;6573;57.696;11.950;2023-06-14T05:47:33;102133.09;;;20.73;100.00
13015;BME280;6573;57.696;11.950;2023-06-14T05:50:04;102137.66;;;20.67;100.00
13015;BME280;6573;57.696;11.950;2023-06-14T05:52:34;102132.06;;;20.77;100.00
13015;BME280;6573;57.696;11.950;2023-06-14T05:55:04;102130.88;;;20.90;100.00
13015;BME280;6573;57.696;11.950;2023-06-14T05:57:33;102127.81;;;21.05;100.00
13015;BME280;6573;57.696;11.950;2023-06-14T06:00:01;102133.97;;;21.10;100.00
13015;BME280;6573;57.696;11.950;2023-06-14T06:02:36;102132.78;;;21.21;100.00
13015;BME280;6573;57.696;11.950;2023-06-14T06:05:07;102130.78;;;21.29;100.00
13015;BME280;6573;57.696;11.950;2023-06-14T06:07:35;102119.59;;;21.48;100.00
13015;BME280;6573;57.696;11.950;2023-06-14T06:10:05;102127.41;;;21.55;100.00
13015;BME280;6573;57.696;11.950;2023-06-14T06:12:33;102122.81;;;21.60;100.00
13015;BME280;6573;57.696;11.950;2023-06-14T06:15:01;102122.13;;;21.52;100.00
13015;BME280;6573;57.696;11.950;2023-06-14T06:17:30;102125.50;;;21.60;100.00
13015;BME280;6573;57.696;11.950;2023-06-14T06:20:20;102121.72;;;21.67;100.00
13015;BME280;6573;57.696;11.950;2023-06-14T06:22:54;102112.00;;;21.63;100.00
13015;BME280;6573;57.696;11.950;2023-06-14T06:25:23;102126.59;;;21.85;100.00
13015;BME280;6573;57.696;11.950;2023-06-14T06:27:53;102120.41;;;21.82;100.00
13015;BME280;6573;57.696;11.950;2023-06-14T06:30:21;102127.47;;;21.84;100.00
13015;BME280;6573;57.696;11.950;2023-06-14T06:32:50;102127.34;;;21.90;100.00
13015;BME280;6573;57.696;11.950;2023-06-14T06:35:19;102126.13;;;22.01;100.00
13015;BME280;6573;57.696;11.950;2023-06-14T06:37:48;102129.31;;;22.15;100.00
13015;BME280;6573;57.696;11.950;2023-06-14T06:40:16;102130.50;;;22.05;100.00
13015;BME280;6573;57.696;11.950;2023-06-14T06:42:44;102140.34;;;22.33;100.00
13015;BME280;6573;57.696;11.950;2023-06-14T06:45:13;102132.44;;;22.29;100.00
13015;BME280;6573;57.696;11.950;2023-06-14T06:47:42;102138.47;;;22.37;100.00
13015;BME280;6573;57.696;11.950;2023-06-14T06:50:10;102141.13;;;22.37;100.00
13015;BME280;6573;57.696;11.950;2023-06-14T06:52:40;102131.66;;;22.53;100.00
13015;BME280;6573;57.696;11.950;2023-06-14T06:55:08;102133.34;;;22.57;100.00
13015;BME280;6573;57.696;11.950;2023-06-14T06:57:38;102134.84;;;22.67;100.00
13015;BME280;6573;57.696;11.950;2023-06-14T07:00:07;102129.56;;;22.64;100.00
13015;BME280;6573;57.696;11.950;2023-06-14T07:02:37;102130.16;;;22.74;100.00
13015;BME280;6573;57.696;11.950;2023-06-14T07:05:05;102121.03;;;22.79;100.00
13015;BME280;6573;57.696;11.950;2023-06-14T07:07:34;102136.50;;;22.71;100.00
13015;BME280;6573;57.696;11.950;2023-06-14T07:10:04;102133.88;;;22.70;100.00
13015;BME280;6573;57.696;11.950;2023-06-14T07:12:32;102132.41;;;22.87;100.00
13015;BME280;6573;57.696;11.950;2023-06-14T07:15:06;102145.28;;;23.02;100.00
13015;BME280;6573;57.696;11.950;2023-06-14T07:17:35;102140.97;;;22.98;100.00
13015;BME280;6573;57.696;11.950;2023-06-14T07:20:05;102131.78;;;23.05;100.00
13015;BME280;6573;57.696;11.950;2023-06-14T07:22:40;102138.81;;;23.09;100.00
13015;BME280;6573;57.696;11.950;2023-06-14T07:25:11;102134.47;;;23.32;100.00
13015;BME280;6573;57.696;11.950;2023-06-14T07:27:43;102138.66;;;23.65;100.00
13015;BME280;6573;57.696;11.950;2023-06-14T07:30:12;102134.72;;;23.75;100.00
13015;BME280;6573;57.696;11.950;2023-06-14T07:32:40;102130.53;;;24.16;100.00
13015;BME280;6573;57.696;11.950;2023-06-14T07:35:09;102127.16;;;24.99;100.00
13015;BME280;6573;57.696;11.950;2023-06-14T07:37:37;102119.75;;;25.86;100.00
13015;BME280;6573;57.696;11.950;2023-06-14T07:40:06;102123.03;;;26.69;100.00
13015;BME280;6573;57.696;11.950;2023-06-14T07:42:37;102121.59;;;27.15;100.00
13015;BME280;6573;57.696;11.950;2023-06-14T07:45:06;102118.56;;;26.86;100.00
13015;BME280;6573;57.696;11.950;2023-06-14T07:47:34;102116.34;;;27.12;100.00
13015;BME280;6573;57.696;11.950;2023-06-14T07:50:03;102123.72;;;27.44;100.00
13015;BME280;6573;57.696;11.950;2023-06-14T07:52:31;102122.09;;;27.74;100.00
13015;BME280;6573;57.696;11.950;2023-06-14T07:55:00;102121.72;;;28.14;100.00
13015;BME280;6573;57.696;11.950;2023-06-14T07:57:28;102118.25;;;28.28;100.00
13015;BME280;6573;57.696;11.950;2023-06-14T07:59:58;102119.13;;;28.60;100.00
13015;BME280;6573;57.696;11.950;2023-06-14T08:02:26;102086.44;;;28.32;100.00
13015;BME280;6573;57.696;11.950;2023-06-14T08:04:55;102117.03;;;28.49;100.00
13015;BME280;6573;57.696;11.950;2023-06-14T08:07:23;102121.06;;;28.58;97.89
13015;BME280;6573;57.696;11.950;2023-06-14T08:09:52;102122.25;;;28.37;96.22
13015;BME280;6573;57.696;11.950;2023-06-14T08:12:21;102128.28;;;27.93;96.79
13015;BME280;6573;57.696;11.950;2023-06-14T08:14:49;102124.75;;;27.91;96.34
13015;BME280;6573;57.696;11.950;2023-06-14T08:17:40;102128.28;;;27.93;95.78
13015;BME280;6573;57.696;11.950;2023-06-14T08:20:09;102115.22;;;27.84;96.25
13015;BME280;6573;57.696;11.950;2023-06-14T08:22:38;102127.13;;;27.97;96.30
13015;BME280;6573;57.696;11.950;2023-06-14T08:25:09;102125.56;;;27.76;96.29
13015;BME280;6573;57.696;11.950;2023-06-14T08:27:39;102121.25;;;27.89;95.27
13015;BME280;6573;57.696;11.950;2023-06-14T08:30:09;102116.00;;;27.86;95.17
13015;BME280;6573;57.696;11.950;2023-06-14T08:32:39;102117.47;;;27.93;94.30
13015;BME280;6573;57.696;11.950;2023-06-14T08:35:08;102116.03;;;28.03;91.46
13015;BME280;6573;57.696;11.950;2023-06-14T08:37:38;102116.72;;;27.90;89.12
13015;BME280;6573;57.696;11.950;2023-06-14T08:40:17;102121.94;;;27.77;88.66
13015;BME280;6573;57.696;11.950;2023-06-14T08:42:48;102119.84;;;27.82;89.58
13015;BME280;6573;57.696;11.950;2023-06-14T08:45:21;102112.81;;;28.12;88.70
13015;BME280;6573;57.696;11.950;2023-06-14T08:47:55;102110.44;;;27.89;89.42
13015;BME280;6573;57.696;11.950;2023-06-14T08:50:30;102127.19;;;27.80;92.15
13015;BME280;6573;57.696;11.950;2023-06-14T08:53:02;102119.84;;;27.82;92.97
13015;BME280;6573;57.696;11.950;2023-06-14T08:55:31;102116.72;;;27.40;94.52
13015;BME280;6573;57.696;11.950;2023-06-14T08:58:04;102117.63;;;27.90;93.60
13015;BME280;6573;57.696;11.950;2023-06-14T09:00:33;102112.03;;;27.93;93.89
13015;BME280;6573;57.696;11.950;2023-06-14T09:03:03;102115.38;;;27.81;95.20
13015;BME280;6573;57.696;11.950;2023-06-14T09:05:32;102117.19;;;27.65;97.14
13015;BME280;6573;57.696;11.950;2023-06-14T09:08:01;102121.81;;;27.46;99.36
13015;BME280;6573;57.696;11.950;2023-06-14T09:10:33;102095.06;;;27.23;100.00
13015;BME280;6573;57.696;11.950;2023-06-14T09:13:02;102115.41;;;27.30;100.00
13015;BME280;6573;57.696;11.950;2023-06-14T09:15:31;102114.53;;;26.95;100.00
13015;BME280;6573;57.696;11.950;2023-06-14T09:18:01;102109.00;;;26.79;100.00
13015;BME280;6573;57.696;11.950;2023-06-14T09:20:32;102089.00;;;26.83;100.00
13015;BME280;6573;57.696;11.950;2023-06-14T09:23:01;102098.06;;;26.82;100.00
13015;BME280;6573;57.696;11.950;2023-06-14T09:25:29;102091.31;;;26.72;100.00
13015;BME280;6573;57.696;11.950;2023-06-14T09:28:07;102113.81;;;26.91;100.00
13015;BME280;6573;57.696;11.950;2023-06-14T09:30:36;102108.13;;;26.60;100.00
13015;BME280;6573;57.696;11.950;2023-06-14T09:33:05;102110.31;;;26.52;100.00
13015;BME280;6573;57.696;11.950;2023-06-14T09:35:35;102110.91;;;26.59;100.00
13015;BME280;6573;57.696;11.950;2023-06-14T09:38:04;102109.28;;;26.73;100.00
13015;BME280;6573;57.696;11.950;2023-06-14T09:40:34;102107.44;;;26.38;100.00
13015;BME280;6573;57.696;11.950;2023-06-14T09:43:06;102109.66;;;26.47;100.00
13015;BME280;6573;57.696;11.950;2023-06-14T09:45:38;102101.72;;;26.81;100.00
13015;BME280;6573;57.696;11.950;2023-06-14T09:48:07;102106.69;;;26.53;100.00
13015;BME280;6573;57.696;11.950;2023-06-14T09:50:39;102112.66;;;26.60;100.00
13015;BME280;6573;57.696;11.950;2023-06-14T09:53:10;102109.91;;;26.61;100.00
13015;BME280;6573;57.696;11.950;2023-06-14T09:55:41;102109.34;;;26.90;100.00
13015;BME280;6573;57.696;11.950;2023-06-14T09:58:10;102108.13;;;26.60;100.00
13015;BME280;6573;57.696;11.950;2023-06-14T10:00:40;102102.44;;;26.85;100.00
13015;BME280;6573;57.696;11.950;2023-06-14T10:03:16;102110.97;;;26.57;100.00
13015;BME280;6573;57.696;11.950;2023-06-14T10:05:50;102104.78;;;26.55;100.00
13015;BME280;6573;57.696;11.950;2023-06-14T10:08:20;102110.84;;;26.60;100.00
13015;BME280;6573;57.696;11.950;2023-06-14T10:10:53;102095.88;;;26.53;100.00
13015;BME280;6573;57.696;11.950;2023-06-14T10:13:21;102106.91;;;26.30;100.00
13015;BME280;6573;57.696;11.950;2023-06-14T10:15:56;102103.06;;;26.54;100.00
13015;BME280;6573;57.696;11.950;2023-06-14T10:18:32;102101.81;;;26.61;100.00
13015;BME280;6573;57.696;11.950;2023-06-14T10:21:08;102095.63;;;26.22;100.00
13015;BME280;6573;57.696;11.950;2023-06-14T10:23:43;102084.81;;;26.59;100.00
13015;BME280;6573;57.696;11.950;2023-06-14T10:26:19;102093.94;;;26.92;100.00
13015;BME280;6573;57.696;11.950;2023-06-14T10:29:00;102096.97;;;27.38;100.00
13015;BME280;6573;57.696;11.950;2023-06-14T10:31:42;102093.78;;;27.64;100.00
13015;BME280;6573;57.696;11.950;2023-06-14T10:34:11;102082.16;;;27.79;100.00
13015;BME280;6573;57.696;11.950;2023-06-14T10:36:44;102076.41;;;27.85;100.00
13015;BME280;6573;57.696;11.950;2023-06-14T10:39:15;102067.34;;;27.53;100.00
13015;BME280;6573;57.696;11.950;2023-06-14T10:41:51;102063.28;;;27.45;100.00
13015;BME280;6573;57.696;11.950;2023-06-14T10:44:49;102075.03;;;27.10;100.00
13015;BME280;6573;57.696;11.950;2023-06-14T10:47:26;102062.31;;;26.94;99.72
13015;BME280;6573;57.696;11.950;2023-06-14T10:49:58;102068.16;;;27.21;99.26
13015;BME280;6573;57.696;11.950;2023-06-14T10:52:33;102079.00;;;26.85;98.79
13015;BME280;6573;57.696;11.950;2023-06-14T10:55:09;102068.06;;;27.06;97.97
13015;BME280;6573;57.696;11.950;2023-06-14T10:57:41;102070.09;;;27.35;96.97
13015;BME280;6573;57.696;11.950;2023-06-14T11:00:18;102065.34;;;27.23;97.25
13015;BME280;6573;57.696;11.950;2023-06-14T11:05:58;102056.69;;;27.33;97.57
13015;BME280;6573;57.696;11.950;2023-06-14T11:09:00;102050.81;;;27.42;96.25
13015;BME280;6573;57.696;11.950;2023-06-14T11:11:35;102049.16;;;27.73;95.11
13015;BME280;6573;57.696;11.950;2023-06-14T11:14:06;102043.44;;;27.94;93.53
13015;BME280;6573;57.696;11.950;2023-06-14T11:16:34;102053.09;;;28.15;92.26
13015;BME280;6573;57.696;11.950;2023-06-14T11:19:03;102036.09;;;27.96;90.07
13015;BME280;6573;57.696;11.950;2023-06-14T11:21:33;102044.69;;;28.04;89.21
13015;BME280;6573;57.696;11.950;2023-06-14T11:24:03;102027.94;;;28.29;88.13
13015;BME280;6573;57.696;11.950;2023-06-14T11:26:31;102038.06;;;28.41;86.54
13015;BME280;6573;57.696;11.950;2023-06-14T11:29:01;102024.13;;;28.17;83.66
13015;BME280;6573;57.696;11.950;2023-06-14T11:31:30;102019.91;;;28.12;82.56
13015;BME280;6573;57.696;11.950;2023-06-14T11:33:59;102016.94;;;28.16;81.63
13015;BME280;6573;57.696;11.950;2023-06-14T11:36:28;102012.59;;;28.30;81.76
13015;BME280;6573;57.696;11.950;2023-06-14T11:38:58;102014.06;;;28.19;81.46
13015;BME280;6573;57.696;11.950;2023-06-14T11:41:36;102014.69;;;28.24;80.86
13015;BME280;6573;57.696;11.950;2023-06-14T11:44:05;102009.25;;;28.24;81.17
13015;BME280;6573;57.696;11.950;2023-06-14T11:46:33;102015.72;;;28.06;81.51
13015;BME280;6573;57.696;11.950;2023-06-14T11:49:02;102014.28;;;27.99;81.45
13015;BME280;6573;57.696;11.950;2023-06-14T11:51:32;102016.22;;;28.29;81.84
13015;BME280;6573;57.696;11.950;2023-06-14T11:54:01;102013.47;;;28.30;81.78
13015;BME280;6573;57.696;11.950;2023-06-14T11:56:30;102008.72;;;28.34;82.18
13015;BME280;6573;57.696;11.950;2023-06-14T11:59:02;102005.06;;;28.35;83.62
13015;BME280;6573;57.696;11.950;2023-06-14T12:01:35;102003.13;;;28.37;83.34
13015;BME280;6573;57.696;11.950;2023-06-14T12:04:05;101994.59;;;28.29;83.03
13015;BME280;6573;57.696;11.950;2023-06-14T12:06:33;101996.31;;;28.61;82.45
13015;BME280;6573;57.696;11.950;2023-06-14T12:09:04;101982.09;;;28.42;81.71
13015;BME280;6573;57.696;11.950;2023-06-14T12:11:35;101999.09;;;28.44;81.30
13015;BME280;6573;57.696;11.950;2023-06-14T12:14:05;101991.25;;;28.55;81.31
13015;BME280;6573;57.696;11.950;2023-06-14T12:16:34;101979.25;;;28.74;81.79
13015;BME280;6573;57.696;11.950;2023-06-14T12:19:13;101991.00;;;28.89;81.41
13015;BME280;6573;57.696;11.950;2023-06-14T12:21:45;101991.16;;;28.86;81.52
13015;BME280;6573;57.696;11.950;2023-06-14T12:24:15;101986.31;;;28.77;82.91
13015;BME280;6573;57.696;11.950;2023-06-14T12:26:44;101987.69;;;28.84;84.70
13015;BME280;6573;57.696;11.950;2023-06-14T12:29:15;101990.72;;;28.64;85.24
13015;BME280;6573;57.696;11.950;2023-06-14T12:31:43;101987.72;;;28.98;83.80
13015;BME280;6573;57.696;11.950;2023-06-14T12:34:12;101978.59;;;28.85;82.50
13015;BME280;6573;57.696;11.950;2023-06-14T12:36:40;101980.50;;;28.83;81.89
13015;BME280;6573;57.696;11.950;2023-06-14T12:39:11;101978.03;;;28.94;81.31
13015;BME280;6573;57.696;11.950;2023-06-14T12:41:40;101971.44;;;28.84;79.30
13015;BME280;6573;57.696;11.950;2023-06-14T12:44:10;101972.94;;;28.74;78.53
13015;BME280;6573;57.696;11.950;2023-06-14T12:46:40;101970.97;;;28.62;77.93
13015;BME280;6573;57.696;11.950;2023-06-14T12:49:09;101967.63;;;28.72;79.25
13015;BME280;6573;57.696;11.950;2023-06-14T12:51:38;101964.66;;;28.77;79.61
13015;BME280;6573;57.696;11.950;2023-06-14T12:54:07;101946.16;;;28.69;78.93
13015;BME280;6573;57.696;11.950;2023-06-14T12:56:35;101962.72;;;28.79;78.68
13015;BME280;6573;57.696;11.950;2023-06-14T12:59:04;101962.19;;;29.02;78.80
13015;BME280;6573;57.696;11.950;2023-06-14T13:01:33;101947.31;;;29.23;78.50